臺北終端管制區 - 松西席

METAR RCSS 212330Z VRB02KT 9999 FEW025 31/25 Q1013 NOSIG RMK A2994(U)=

站台狀態:Online
最後更新:2018-09-22 07:30:02